Map

Track Data

SID SEASON NUMBER BASIN SUBBASIN NAME ISO_TIME NATURE LAT LON WMO_WIND WMO_PRES WMO_AGENCY TRACK_TYPE DIST2LAND LANDFALL IFLAG USA_AGENCY USA_ATCF_ID USA_LAT USA_LON USA_RECORD USA_STATUS USA_WIND USA_PRES USA_SSHS USA_R34_NE USA_R34_SE USA_R34_SW USA_R34_NW USA_R50_NE USA_R50_SE USA_R50_SW USA_R50_NW USA_R64_NE USA_R64_SE USA_R64_SW USA_R64_NW USA_POCI USA_ROCI USA_RMW USA_EYE TOKYO_LAT TOKYO_LON TOKYO_GRADE TOKYO_WIND TOKYO_PRES TOKYO_R50_DIR TOKYO_R50_LONG TOKYO_R50_SHORT TOKYO_R30_DIR TOKYO_R30_LONG TOKYO_R30_SHORT TOKYO_LAND CMA_LAT CMA_LON CMA_CAT CMA_WIND CMA_PRES HKO_LAT HKO_LON HKO_CAT HKO_WIND HKO_PRES NEWDELHI_LAT NEWDELHI_LON NEWDELHI_GRADE NEWDELHI_WIND NEWDELHI_PRES NEWDELHI_CI NEWDELHI_DP NEWDELHI_POCI REUNION_LAT REUNION_LON REUNION_TYPE REUNION_WIND REUNION_PRES REUNION_TNUM REUNION_CI REUNION_RMW REUNION_R34_NE REUNION_R34_SE REUNION_R34_SW REUNION_R34_NW REUNION_R50_NE REUNION_R50_SE REUNION_R50_SW REUNION_R50_NW REUNION_R64_NE REUNION_R64_SE REUNION_R64_SW REUNION_R64_NW BOM_LAT BOM_LON BOM_TYPE BOM_WIND BOM_PRES BOM_TNUM BOM_CI BOM_RMW BOM_R34_NE BOM_R34_SE BOM_R34_SW BOM_R34_NW BOM_R50_NE BOM_R50_SE BOM_R50_SW BOM_R50_NW BOM_R64_NE BOM_R64_SE BOM_R64_SW BOM_R64_NW BOM_ROCI BOM_POCI BOM_EYE BOM_POS_METHOD BOM_PRES_METHOD NADI_LAT NADI_LON NADI_CAT NADI_WIND NADI_PRES WELLINGTON_LAT WELLINGTON_LON WELLINGTON_WIND WELLINGTON_PRES DS824_LAT DS824_LON DS824_STAGE DS824_WIND DS824_PRES TD9636_LAT TD9636_LON TD9636_STAGE TD9636_WIND TD9636_PRES TD9635_LAT TD9635_LON TD9635_WIND TD9635_PRES TD9635_ROCI NEUMANN_LAT NEUMANN_LON NEUMANN_CLASS NEUMANN_WIND NEUMANN_PRES MLC_LAT MLC_LON MLC_CLASS MLC_WIND MLC_PRES USA_GUST BOM_GUST BOM_GUST_PER REUNION_GUST REUNION_GUST_PER USA_SEAHGT USA_SEARAD_NE USA_SEARAD_SE USA_SEARAD_SW USA_SEARAD_NW STORM_SPEED STORM_DIR
1993331N05172 1993 92 WP MM LOLA 1993-11-27 06:00:00 NR 5.00000 171.600 main 1921 1873 O_____________ jtwc_wp WP351993 5.00000 171.600 10 -1 14 273
1993331N05172 1993 92 WP MM LOLA 1993-11-27 09:00:00 NR 5.04012 170.905 main 1873 1837 P_____________ WP351993 5.04012 170.905 10 -1 14 274
1993331N05172 1993 92 WP MM LOLA 1993-11-27 12:00:00 NR 5.10000 170.200 main 1837 1804 O_____________ jtwc_wp WP351993 5.10000 170.200 10 -1 14 276
1993331N05172 1993 92 WP MM LOLA 1993-11-27 15:00:00 NR 5.19247 169.485 main 1804 1773 P_____________ WP351993 5.19247 169.485 10 -1 14 278
1993331N05172 1993 92 WP MM LOLA 1993-11-27 18:00:00 NR 5.30000 168.800 main 1773 1750 O_____________ jtwc_wp WP351993 5.30000 168.800 10 -1 13 279
1993331N05172 1993 92 WP MM LOLA 1993-11-27 21:00:00 NR 5.39994 168.170 main 1750 1730 P_____________ WP351993 5.39994 168.170 10 -1 12 280
1993331N05172 1993 92 WP MM LOLA 1993-11-28 00:00:00 NR 5.50000 167.600 main 1730 1716 O_____________ jtwc_wp WP351993 5.50000 167.600 10 -1 11 280
1993331N05172 1993 92 WP MM LOLA 1993-11-28 03:00:00 NR 5.59992 167.085 main 1717 1704 P_____________ WP351993 5.59992 167.085 10 -1 10 281
1993331N05172 1993 92 WP MM LOLA 1993-11-28 06:00:00 NR 5.70000 166.600 main 1706 1696 O_____________ jtwc_wp WP351993 5.70000 166.600 10 -1 10 282
1993331N05172 1993 92 WP MM LOLA 1993-11-28 09:00:00 NR 5.79994 166.107 main 1696 1688 P_____________ WP351993 5.79994 166.107 10 -1 10 281
1993331N05172 1993 92 WP MM LOLA 1993-11-28 12:00:00 NR 5.90000 165.600 main 1688 1678 O_____________ jtwc_wp WP351993 5.90000 165.600 10 -1 11 281
1993331N05172 1993 92 WP MM LOLA 1993-11-28 15:00:00 NR 5.99994 165.065 main 1681 1664 P_____________ WP351993 5.99994 165.065 12 -1 11 280
1993331N05172 1993 92 WP MM LOLA 1993-11-28 18:00:00 NR 6.10000 164.500 main 1664 1651 O_____________ jtwc_wp WP351993 6.10000 164.500 15 -1 11 280
1993331N05172 1993 92 WP MM LOLA 1993-11-28 21:00:00 NR 6.19987 163.930 main 1644 1615 P_____________ WP351993 6.19987 163.930 15 -1 12 280
1993331N05172 1993 92 WP MM LOLA 1993-11-29 00:00:00 NR 6.30000 163.300 main 1615 1581 O_____________ jtwc_wp WP351993 6.30000 163.300 15 -1 14 278
1993331N05172 1993 92 WP MM LOLA 1993-11-29 03:00:00 NR 6.39995 162.580 main 1581 1535 P_____________ WP351993 6.39995 162.580 15 -1 15 278
1993331N05172 1993 92 WP MM LOLA 1993-11-29 06:00:00 NR 6.50000 161.800 main 1535 1495 O_____________ jtwc_wp WP351993 6.50000 161.800 15 -1 16 278
1993331N05172 1993 92 WP MM LOLA 1993-11-29 09:00:00 NR 6.60737 161.015 main 1488 1444 P_____________ WP351993 6.60737 161.015 15 -1 16 277
1993331N05172 1993 92 WP MM LOLA 1993-11-29 12:00:00 NR 6.70000 160.200 main 1444 1396 O_____________ jtwc_wp WP351993 6.70000 160.200 15 -1 16 275
1993331N05172 1993 92 WP MM LOLA 1993-11-29 15:00:00 NR 6.75735 159.365 main 1398 1342 P_____________ WP351993 6.75735 159.365 15 -1 17 273
1993331N05172 1993 92 WP MM LOLA 1993-11-29 18:00:00 NR 6.80000 158.500 main 1342 1302 O_____________ jtwc_wp WP351993 6.80000 158.500 15 -1 18 273
1993331N05172 1993 92 WP MM LOLA 1993-11-29 21:00:00 NR 6.85741 157.600 main 1300 1250 P_____________ WP351993 6.85741 157.600 17 -1 18 273
1993331N05172 1993 92 WP MM LOLA 1993-11-30 00:00:00 NR 6.90000 156.700 main 1250 1210 O_____________ jtwc_wp WP351993 6.90000 156.700 20 -1 18 271
1993331N05172 1993 92 WP MM LOLA 1993-11-30 03:00:00 NR 6.89985 155.835 main 1205 1168 P_____________ WP351993 6.89985 155.835 20 -1 17 270
1993331N05172 1993 92 WP MM LOLA 1993-11-30 06:00:00 NR 6.90000 155.000 main 1168 1136 O_____________ jtwc_wp WP351993 6.90000 155.000 20 -1 16 272
1993331N05172 1993 92 WP MM LOLA 1993-11-30 09:00:00 NR 6.94983 154.193 main 1136 1121 P_____________ WP351993 6.94983 154.193 20 -1 16 274
1993331N05172 1993 92 WP MM LOLA 1993-11-30 12:00:00 NR 7.00000 153.400 main 1121 1103 O_____________ jtwc_wp WP351993 7.00000 153.400 20 -1 16 272
1993331N05172 1993 92 WP MM LOLA 1993-11-30 15:00:00 NR 6.99237 152.600 main 1103 1091 P_____________ WP351993 6.99237 152.600 20 -1 16 270
1993331N05172 1993 92 WP MM LOLA 1993-11-30 18:00:00 NR 7.00000 151.800 main 1091 1087 O_____________ jtwc_wp WP351993 7.00000 151.800 20 -1 16 273
1993331N05172 1993 92 WP MM LOLA 1993-11-30 21:00:00 NR 7.08483 151.008 main 1098 1087 P_____________ WP351993 7.08483 151.008 20 -1 16 277
1993331N05172 1993 92 WP MM LOLA 1993-12-01 00:00:00 NR 7.20000 150.200 main 1087 1076 O_____________ jtwc_wp WP351993 7.20000 150.200 20 -1 17 277
1993331N05172 1993 92 WP MM LOLA 1993-12-01 03:00:00 NR 7.29238 149.357 main 1076 1029 P_____________ WP351993 7.29238 149.357 22 -1 16 261
1993331N05172 1993 92 WP MM LOLA 1993-12-01 06:00:00 TS 6.95000 148.617 1004 tokyo main 1028 1010 OO_O__________ jtwc_wp WP351993 7.40000 148.500 25 -1 6.00000 148.500 2 1004 0 0 0 6.10000 149.200 TD 25 1004 16 256
1993331N05172 1993 92 WP MM LOLA 1993-12-01 09:00:00 TS 6.92754 147.838 main 1009 1008 PP_P__________ WP351993 7.54234 147.650 25 -1 6.23271 147.750 2 1004 0 0 6.39279 148.303 TD 25 1004 16 273
1993331N05172 1993 92 WP MM LOLA 1993-12-01 12:00:00 TS 7.04000 147.040 1004 tokyo main 1019 1019 OO_O__________ jtwc_wp WP351993 7.70000 146.800 25 -1 6.50000 147.000 2 1004 0 0 0 6.70000 147.400 TD 25 1004 16 281
1993331N05172 1993 92 WP MM LOLA 1993-12-01 15:00:00 TS 7.22985 146.233 main 1043 1043 PP_P__________ WP351993 7.82729 145.957 25 -1 6.82739 146.250 2 1004 0 0 7.03487 146.492 TD 25 1004 17 286
1993331N05172 1993 92 WP MM LOLA 1993-12-01 18:00:00 TS 7.50769 145.408 1004 tokyo main 1083 1083 OOOO__________ jtwc_wp WP351993 8.00000 145.100 25 -1 7.20000 145.500 2 1004 0 0 0 7.20000 145.500 0 19 1004 7.40000 145.600 TD 25 1004 17 291
1993331N05172 1993 92 WP MM LOLA 1993-12-01 21:00:00 TS 7.84415 144.600 main 1131 1131 PPPP__________ WP351993 8.26990 144.200 27 -1 7.59229 144.765 2 1004 0 0 7.60019 144.770 0 19 1004 7.79224 144.750 TD 25 1004 18 294
1993331N05172 1993 92 WP MM LOLA 1993-12-02 00:00:00 TS 8.21333 143.787 1004 tokyo main 1195 1195 OOOO__________ jtwc_wp WP351993 8.60000 143.300 30 -1 8.00000 144.000 2 1004 0 0 0 8.00000 144.000 0 19 1004 8.20000 143.900 TD 25 1004 18 294
1993331N05172 1993 92 WP MM LOLA 1993-12-02 03:00:00 TS 8.58174 142.943 main 1255 1251 PPPP__________ WP351993 8.93476 142.442 30 -1 8.39996 143.157 2 1004 0 0 8.39991 143.165 0 21 1003 8.59234 143.007 TD 25 1003 19 294
1993331N05172 1993 92 WP MM LOLA 1993-12-02 06:00:00 TS 8.97500 142.075 1004 tokyo main 1264 1256 OOOO__________ jtwc_wp WP351993 9.30000 141.600 30 -1 8.80000 142.300 2 1004 0 0 0 8.80000 142.300 1 23 1002 9.00000 142.100 TD 25 1002 19 296
1993331N05172 1993 92 WP MM LOLA 1993-12-02 09:00:00 TS 9.39463 141.244 main 1276 1276 PPPP__________ WP351993 9.70717 140.765 30 -1 9.20711 141.515 2 1003 0 0 9.21457 141.480 1 26 1001 9.44965 141.215 TD 25 1002 19 296
1993331N05172 1993 92 WP MM LOLA 1993-12-02 12:00:00 TS 9.80000 140.375 1002 tokyo main 1288 1282 OOOO__________ jtwc_wp WP351993 10.1000 139.900 30 -1 9.60000 140.700 2 1002 0 0 0 9.60000 140.600 1 29 1000 9.90000 140.300 TD 25 1002 20 293
1993331N05172 1993 92 WP MM LOLA 1993-12-02 15:00:00 TS 10.1503 139.425 main 1291 1281 PPPP__________ WP351993 10.4223 138.965 32 -1 9.95714 139.802 2 1001 0 0 9.89214 139.609 1 29 1000 10.3298 139.322 TD 27 1001 21 289
1993331N05172 1993 92 WP MM LOLA 1993-12-02 18:00:00 TS 10.4750 138.400 35 1000 tokyo main 1292 1235 OOOO__________ jtwc_wp WP351993 10.7000 138.000 35 0 10.3000 138.800 3 35 1000 0 9 100 100 0 10.2000 138.500 1 29 1000 10.7000 138.300 TD 30 1000 22 288
1993331N05172 1993 92 WP MM LOLA 1993-12-02 21:00:00 TS 10.8130 137.307 main 1225 1125 PPPP__________ WP351993 10.9648 137.035 37 0 10.6574 137.680 3 37 998 0 9 110 110 10.6500 137.265 1 33 999 10.9798 137.250 TD 30 1000 23 287
1993331N05172 1993 92 WP MM LOLA 1993-12-03 00:00:00 TS 11.1250 136.200 40 996 tokyo main 1115 1015 OOOO__________ jtwc_wp WP351993 11.2000 136.100 40 0 11.0000 136.500 3 40 996 0 9 120 120 0 11.1000 136.000 2 38 998 11.2000 136.200 TD 30 1000 22 285
1993331N05172 1993 92 WP MM LOLA 1993-12-03 03:00:00 TS 11.3861 135.125 main 1005 915 PPPP__________ WP351993 11.3996 135.242 42 0 11.3150 135.312 3 42 993 0 9 135 135 11.4301 134.760 2 38 996 11.3997 135.185 TD 32 997 21 284
1993331N05172 1993 92 WP MM LOLA 1993-12-03 06:00:00 TS 11.6250 134.125 45 990 tokyo main 905 822 OOOO__________ jtwc_wp WP351993 11.6000 134.400 45 0 11.6000 134.200 3 45 990 0 9 150 150 0 11.7000 133.700 2 38 995 11.6000 134.200 TS 35 995 19 285
1993331N05172 1993 92 WP MM LOLA 1993-12-03 09:00:00 TS 11.8652 133.235 main 813 740 PPPP__________ WP351993 11.8274 133.500 47 0 11.8495 133.240 3 47 987 0 9 150 150 11.9566 132.990 2 43 990 11.8274 133.212 TS 40 992 17 287
1993331N05172 1993 92 WP MM LOLA 1993-12-03 12:00:00 TS 12.1250 132.425 50 985 tokyo main 729 661 OOOO__________ jtwc_wp WP351993 12.1000 132.600 50 0 12.1000 132.400 4 50 985 0 9 150 150 0 12.2000 132.400 3 48 985 12.1000 132.300 TS 45 990 17 290
1993331N05172 1993 92 WP MM LOLA 1993-12-03 15:00:00 TS 12.4241 131.631 main 651 587 PPPP__________ WP351993 12.4424 131.720 52 0 12.3920 131.635 4 50 985 0 9 150 150 12.4424 131.665 3 48 985 12.4196 131.505 TS 47 987 16 292
1993331N05172 1993 92 WP MM LOLA 1993-12-03 18:00:00 TS 12.7500 130.875 50 985 tokyo main 590 520 OOOO__________ jtwc_wp WP351993 12.8000 130.900 55 0 12.7000 130.900 4 50 985 0 9 150 150 0 12.7000 130.900 3 48 985 12.8000 130.800 STS 50 985 16 295
1993331N05172 1993 92 WP MM LOLA 1993-12-03 21:00:00 TS 13.1004 130.139 main 509 454 PPPP__________ WP351993 13.1221 130.177 57 0 13.0150 130.085 4 52 982 0 9 155 155 12.9923 130.142 3 53 982 13.2721 130.150 STS 55 980 16 296
1993331N05172 1993 92 WP MM LOLA 1993-12-04 00:00:00 TS 13.4250 129.425 55 980 tokyo main 443 385 OOOO__________ jtwc_wp WP351993 13.4000 129.500 60 0 13.3000 129.300 4 55 980 9 30 30 9 160 160 0 13.3000 129.400 3 58 980 13.7000 129.500 STS 60 975 15 293
1993331N05172 1993 92 WP MM LOLA 1993-12-04 03:00:00 TS 13.6818 128.708 main 385 333 PPPP__________ WP351993 13.6224 128.792 62 0 13.5222 128.620 4 57 977 9 40 40 9 170 170 13.6224 128.678 3 58 980 13.9601 128.742 STS 60 975 14 288
1993331N05172 1993 92 WP MM LOLA 1993-12-04 06:00:00 TS 13.8750 128.025 60 975 tokyo main 331 288 OOOO__________ jtwc_wp WP351993 13.8000 128.100 65 1 13.7000 128.000 4 60 975 9 50 50 9 180 180 0 13.9000 128.000 3 58 980 14.1000 128.000 STS 60 975 13 285
1993331N05172 1993 92 WP MM LOLA 1993-12-04 09:00:00 TS 14.0242 127.382 main 288 249 PPPP__________ WP351993 13.9724 127.428 65 1 13.8649 127.377 4 62 972 9 60 60 9 220 180 14.0874 127.362 3 63 975 14.1723 127.362 STS 60 975 12 282
1993331N05172 1993 92 WP MM LOLA 1993-12-04 12:00:00 TS 14.1250 126.800 65 970 tokyo main 249 207 OOOO__________ jtwc_wp WP351993 14.1000 126.800 65 1 14.0000 126.800 5 65 970 9 70 70 8 260 180 0 14.2000 126.800 4 68 970 14.2000 126.800 STS 60 975 11 279
1993331N05172 1993 92 WP MM LOLA 1993-12-04 15:00:00 TS 14.2004 126.279 main 207 154 PPPP__________ WP351993 14.1648 126.227 67 1 14.1073 126.277 5 67 967 9 80 80 8 280 190 14.2722 126.335 4 72 965 14.2573 126.278 STS 62 972 10 277
1993331N05172 1993 92 WP MM LOLA 1993-12-04 18:00:00 TS 14.2500 125.800 70 965 tokyo main 157 106 OOOO__________ jtwc_wp WP351993 14.2000 125.700 70 1 14.2000 125.800 5 70 965 9 90 90 8 300 200 0 14.3000 125.900 4 77 960 14.3000 125.800 T 65 970 9 276
1993331N05172 1993 92 WP MM LOLA 1993-12-04 21:00:00 TS 14.2986 125.323 main 106 70 PPPP__________ WP351993 14.2649 125.185 72 1 14.3148 125.350 5 72 962 9 90 90 8 300 200 14.3074 125.415 4 77 960 14.3074 125.342 T 65 970 9 275
1993331N05172 1993 92 WP MM LOLA 1993-12-05 00:00:00 TS 14.3250 124.850 75 960 tokyo main 70 35 OOOO__________ jtwc_wp WP351993 14.3000 124.700 75 1 14.4000 124.900 5 75 960 9 90 90 8 300 200 0 14.3000 124.900 4 77 960 14.3000 124.900 T 65 970 9 272
1993331N05172 1993 92 WP MM LOLA 1993-12-05 03:00:00 TS 14.3294 124.351 main 35 33 PPPP__________ WP351993 14.2649 124.235 77 1 14.4300 124.400 5 77 957 9 95 95 8 300 225 14.3076 124.328 4 77 960 14.3150 124.443 T 67 967 9 268
1993331N05172 1993 92 WP MM LOLA 1993-12-05 06:00:00 TS 14.3000 123.875 80 955 tokyo main 39 31 OOOO__________ jtwc_wp WP351993 14.2000 123.800 80 1 14.4000 123.900 5 80 955 9 100 100 8 300 250 0 14.3000 123.800 4 77 960 14.3000 124.000 T 70 965 9 264
1993331N05172 1993 92 WP MM LOLA 1993-12-05 09:00:00 TS 14.2380 123.468 main 31 15 PPPP__________ WP351993 14.1498 123.408 80 1 14.3149 123.435 5 77 957 9 100 100 8 300 250 14.2723 123.428 4 77 960 14.2149 123.600 T 65 970 8 259
1993331N05172 1993 92 WP MM LOLA 1993-12-05 12:00:00 TS 14.1500 123.075 75 960 tokyo main 15 0 OOOO__________ jtwc_wp WP351993 14.1000 123.000 80 1 14.2000 123.000 5 75 960 9 100 100 8 300 250 0 14.2000 123.100 4 77 960 14.1000 123.200 STS 60 975 8 257
1993331N05172 1993 92 WP MM LOLA 1993-12-05 15:00:00 TS 14.0554 122.666 main 0 0 PPPP__________ WP351993 14.0574 122.530 77 1 14.0998 122.615 5 72 962 9 90 90 8 270 245 14.0647 122.753 4 72 962 13.9999 122.765 STS 57 977 9 257
1993331N05172 1993 92 WP MM LOLA 1993-12-05 18:00:00 TS 13.9500 122.200 70 965 tokyo main 10 0 OOOO__________ jtwc_wp WP351993 14.0000 122.000 75 1 14.0000 122.200 5 70 965 9 80 80 9 240 240 0 13.9000 122.300 4 68 965 13.9000 122.300 STS 55 980 10 258
1993331N05172 1993 92 WP MM LOLA 1993-12-05 21:00:00 TS 13.8433 121.618 main 10 0 PPPP__________ WP351993 13.9301 121.400 72 1 13.9001 121.658 5 65 970 9 65 65 9 220 220 13.7429 121.607 4 63 970 13.7999 121.808 STS 52 982 12 259
1993331N05172 1993 92 WP MM LOLA 1993-12-06 00:00:00 TS 13.7250 121.025 60 975 tokyo main 0 0 OOOO__________ jtwc_wp WP351993 13.8000 120.800 70 1 13.8000 121.100 4 60 975 9 50 50 9 200 200 0 13.6000 120.900 3 58 975 13.7000 121.300 STS 50 985 11 257
1993331N05172 1993 92 WP MM LOLA 1993-12-06 03:00:00 TS 13.5948 120.529 main 22 11 PPPP__________ WP351993 13.5648 120.277 67 1 13.7148 120.635 4 57 977 9 45 45 9 180 180 13.4922 120.405 3 58 977 13.6074 120.800 STS 50 985 10 253
1993331N05172 1993 92 WP MM LOLA 1993-12-06 06:00:00 TS 13.4500 120.075 55 980 tokyo main 24 24 OOOO__________ jtwc_wp WP351993 13.3000 119.800 65 1 13.6000 120.200 4 55 980 9 40 40 9 160 160 0 13.4000 120.000 3 58 980 13.5000 120.300 STS 50 985 9 251
1993331N05172 1993 92 WP MM LOLA 1993-12-06 09:00:00 TS 13.2987 119.619 main 76 76 PPPP__________ WP351993 13.0924 119.343 62 0 13.4225 119.743 4 55 980 9 40 40 9 160 160 13.3224 119.600 3 58 980 13.3574 119.793 STS 47 987 9 250
1993331N05172 1993 92 WP MM LOLA 1993-12-06 12:00:00 TS 13.1250 119.175 55 980 tokyo main 123 123 OOOO__________ jtwc_wp WP351993 12.9000 118.900 60 0 13.2000 119.300 4 55 980 9 40 40 9 160 160 0 13.2000 119.200 3 58 980 13.2000 119.300 TS 45 990 10 246
1993331N05172 1993 92 WP MM LOLA 1993-12-06 15:00:00 TS 12.9143 118.724 main 182 182 PPPP__________ WP351993 12.6999 118.450 57 0 12.9424 118.885 4 55 980 9 40 40 9 160 160 12.9576 118.727 3 53 982 13.0574 118.835 TS 45 990 10 244
1993331N05172 1993 92 WP MM LOLA 1993-12-06 18:00:00 TS 12.7000 118.300 55 980 tokyo main 204 203 OOOO__________ jtwc_wp WP351993 12.5000 118.000 55 0 12.7000 118.500 4 55 980 9 40 40 9 160 160 0 12.7000 118.300 3 48 985 12.9000 118.400 TS 45 990 9 243
1993331N05172 1993 92 WP MM LOLA 1993-12-06 21:00:00 TS 12.5155 117.938 main 218 218 PPPP__________ WP351993 12.2924 117.550 55 0 12.5349 118.158 4 55 980 9 40 40 9 160 160 12.5348 118.050 3 48 985 12.6999 117.993 TS 47 987 8 244
1993331N05172 1993 92 WP MM LOLA 1993-12-07 00:00:00 TS 12.3500 117.575 55 980 tokyo main 237 231 OOOO__________ jtwc_wp WP351993 12.1000 117.100 55 0 12.4000 117.800 4 55 980 9 40 40 9 160 160 0 12.4000 117.800 3 48 985 12.5000 117.600 STS 50 985 8 247
1993331N05172 1993 92 WP MM LOLA 1993-12-07 03:00:00 TS 12.1980 117.160 main 264 264 PPPP__________ WP351993 11.9424 116.658 57 0 12.2425 117.372 4 55 980 9 40 40 9 160 160 12.2574 117.403 3 48 985 12.3499 117.208 STS 50 985 9 251
1993331N05172 1993 92 WP MM LOLA 1993-12-07 06:00:00 TS 12.0500 116.700 55 980 tokyo main 311 307 OOOO__________ jtwc_wp WP351993 11.8000 116.200 60 0 12.1000 116.900 4 55 980 9 40 40 9 160 160 0 12.1000 116.900 3 48 985 12.2000 116.800 STS 50 985 10 252
1993331N05172 1993 92 WP MM LOLA 1993-12-07 09:00:00 TS 11.8856 116.193 main 348 345 PPPP__________ WP351993 11.6499 115.715 60 0 11.9924 116.408 4 55 980 9 40 40 9 160 160 11.8927 116.285 3 48 985 12.0074 116.365 STS 50 985 11 252
1993331N05172 1993 92 WP MM LOLA 1993-12-07 12:00:00 TS 11.7250 115.675 55 980 tokyo main 362 362 OOOO__________ jtwc_wp WP351993 11.5000 115.200 60 0 11.9000 115.900 4 55 980 9 40 40 9 160 160 0 11.7000 115.700 3 48 985 11.8000 115.900 STS 50 985 10 252
1993331N05172 1993 92 WP MM LOLA 1993-12-07 15:00:00 TS 11.5798 115.219 main 391 391 PPPP__________ WP351993 11.3349 114.657 62 0 11.7998 115.423 4 57 977 9 45 45 9 170 170 11.5921 115.358 3 53 982 11.5923 115.438 STS 52 982 10 254
1993331N05172 1993 92 WP MM LOLA 1993-12-07 18:00:00 TS 11.4500 114.725 60 975 tokyo main 422 415 OOOO__________ jtwc_wp WP351993 11.2000 114.100 65 1 11.7000 114.900 4 60 975 9 50 50 9 180 180 0 11.5000 115.000 3 58 980 11.4000 114.900 STS 55 980 11 256
1993331N05172 1993 92 WP MM LOLA 1993-12-07 21:00:00 TS 11.3186 114.131 main 459 459 PPPP__________ WP351993 11.1274 113.558 70 1 11.5999 114.288 4 62 972 9 60 60 9 180 180 11.3273 114.440 3 63 975 11.2200 114.237 STS 57 977 13 260
1993331N05172 1993 92 WP MM LOLA 1993-12-08 00:00:00 TS 11.2250 113.450 65 970 tokyo main 462 378 OOOO__________ jtwc_wp WP351993 11.1000 113.000 75 1 11.5000 113.600 5 65 970 9 70 70 9 180 180 0 11.2000 113.700 4 68 970 11.1000 113.500 STS 60 975 14 264
1993331N05172 1993 92 WP MM LOLA 1993-12-08 03:00:00 TS 11.1788 112.701 main 378 304 PPPP__________ WP351993 11.0774 112.415 82 1 11.3698 112.880 5 67 967 9 80 80 9 190 190 11.2129 112.758 4 68 967 11.0549 112.750 STS 62 972 15 269
1993331N05172 1993 92 WP MM LOLA 1993-12-08 06:00:00 TS 11.2000 111.925 70 965 tokyo main 294 217 OOOO__________ jtwc_wp WP351993 11.1000 111.800 90 2 11.3000 112.100 5 70 965 9 90 90 9 200 200 0 11.3000 111.800 4 68 965 11.1000 112.000 T 65 970 15 274
1993331N05172 1993 92 WP MM LOLA 1993-12-08 09:00:00 TS 11.2729 111.189 main 217 142 PPPP__________ WP351993 11.1623 111.180 97 3 11.3476 111.243 5 72 962 9 90 90 9 200 200 11.3771 111.055 4 72 962 11.2049 111.277 T 65 970 14 279
1993331N05172 1993 92 WP MM LOLA 1993-12-08 12:00:00 TS 11.4250 110.475 75 960 tokyo main 142 63 OOOO__________ jtwc_wp WP351993 11.3000 110.500 105 3 11.5000 110.400 5 75 960 9 90 90 9 200 200 0 11.5000 110.400 4 77 960 11.4000 110.600 T 65 970 14 285
1993331N05172 1993 92 WP MM LOLA 1993-12-08 15:00:00 TS 11.6372 109.795 main 63 0 PPPP__________ WP351993 11.5199 109.730 100 3 11.7196 109.685 5 70 965 9 80 80 9 200 200 11.6398 109.750 4 72 965 11.6696 110.015 T 60 975 14 290
1993331N05172 1993 92 WP MM LOLA 1993-12-08 18:00:00 TS 11.9250 109.100 65 970 tokyo main 0 0 OOOO__________ jtwc_wp WP351993 11.8000 108.900 95 2 12.0000 109.000 5 65 970 9 70 70 9 200 200 0 11.9000 109.100 4 68 970 12.0000 109.400 STS 55 980 16 294
1993331N05172 1993 92 WP MM LOLA 1993-12-08 21:00:00 TS 12.2668 108.336 main 0 0 PPPP__________ WP351993 12.0474 108.049 72 1 12.2925 108.235 5 57 977 9 9 180 180 12.4074 108.408 4 68 977 12.3198 108.652 STS 50 985 17 295
1993331N05172 1993 92 WP MM LOLA 1993-12-09 00:00:00 TS 12.6286 107.521 50 985 tokyo main 0 0 OOOO__________ jtwc_wp WP351993 12.4000 107.200 50 0 12.6000 107.500 4 50 985 9 9 160 160 0 12.9000 107.700 4 68 985 12.7000 107.800 TS 45 990 17 295
1993331N05172 1993 92 WP MM LOLA 1993-12-09 03:00:00 TS 13.0130 106.720 main 0 0 PPPP__________ WP351993 12.9623 106.378 42 0 12.9224 106.848 4 42 992 9 9 130 130 13.1353 106.997 4 53 987 13.1733 106.871 TS 37 995 17 298
1993331N05172 1993 92 WP MM LOLA 1993-12-09 06:00:00 TS 13.3889 106.022 35 1000 tokyo main 0 0 OOOO__________ jtwc_wp WP351993 13.6000 105.600 35 0 13.2000 106.300 3 35 1000 0 9 100 100 0 13.2000 106.300 2 38 990 13.7000 105.900 TD 30 1000 13 299
1993331N05172 1993 92 WP MM LOLA 1993-12-09 09:00:00 TS 13.6550 105.526 main 0 0 PP____________ WP351993 14.1753 104.883 30 -1 13.3949 105.847 3 1002 0 9 2 TD 9 297
1993331N05172 1993 92 WP MM LOLA 1993-12-09 12:00:00 TS 13.8000 105.175 1004 tokyo main 0 0 OO____________ jtwc_wp WP351993 14.7000 104.200 25 -1 13.5000 105.500 2 1004 0 0 0 3 245
1993331N05172 1993 92 WP MM LOLA 1993-12-09 15:00:00 TS 13.5226 105.230 main 0 0 _P____________ WP351993 -1 13.5226 105.230 2 1005 0 0 3 209
1993331N05172 1993 92 WP MM LOLA 1993-12-09 18:00:00 TS 13.5000 105.000 1006 tokyo main 0 _O____________ -1 13.5000 105.000 2 1006 0 0 0 5 264

Digital Typhoon Data and Search

About IBTrACS Database

This database is a web-friendly format of International Best Track Archive for Climate Stewardship (IBTrACS), a global best track data archive curated by NOAA dating back to 1842.

Updated: 2021-10-25